sensor_id;sensor_type;location;lat;lon;timestamp;P1;durP1;ratioP1;P2;durP2;ratioP2
24557;SDS011;12726;49.148;8.582;2023-08-31T00:02:22;4.50;;;2.10;;
24557;SDS011;12726;49.148;8.582;2023-08-31T00:05:08;3.63;;;2.25;;
24557;SDS011;12726;49.148;8.582;2023-08-31T00:07:54;3.00;;;1.67;;
24557;SDS011;12726;49.148;8.582;2023-08-31T00:10:39;2.92;;;2.13;;
24557;SDS011;12726;49.148;8.582;2023-08-31T00:13:26;3.17;;;1.92;;
24557;SDS011;12726;49.148;8.582;2023-08-31T00:16:12;3.65;;;2.20;;
24557;SDS011;12726;49.148;8.582;2023-08-31T00:18:57;4.45;;;2.58;;
24557;SDS011;12726;49.148;8.582;2023-08-31T00:21:45;5.30;;;3.05;;
24557;SDS011;12726;49.148;8.582;2023-08-31T00:24:32;2.72;;;2.10;;
24557;SDS011;12726;49.148;8.582;2023-08-31T00:27:20;7.25;;;2.50;;
24557;SDS011;12726;49.148;8.582;2023-08-31T00:30:07;4.57;;;2.47;;
24557;SDS011;12726;49.148;8.582;2023-08-31T00:32:53;3.25;;;2.40;;
24557;SDS011;12726;49.148;8.582;2023-08-31T00:35:39;3.55;;;2.25;;
24557;SDS011;12726;49.148;8.582;2023-08-31T00:38:29;4.40;;;2.60;;
24557;SDS011;12726;49.148;8.582;2023-08-31T00:41:14;7.45;;;2.70;;
24557;SDS011;12726;49.148;8.582;2023-08-31T00:44:00;5.03;;;2.65;;
24557;SDS011;12726;49.148;8.582;2023-08-31T00:46:49;3.85;;;2.13;;
24557;SDS011;12726;49.148;8.582;2023-08-31T00:49:35;3.40;;;2.45;;
24557;SDS011;12726;49.148;8.582;2023-08-31T00:52:20;3.20;;;2.47;;
24557;SDS011;12726;49.148;8.582;2023-08-31T00:55:06;5.05;;;2.42;;
24557;SDS011;12726;49.148;8.582;2023-08-31T00:57:52;4.68;;;3.00;;
24557;SDS011;12726;49.148;8.582;2023-08-31T01:00:40;6.50;;;2.80;;
24557;SDS011;12726;49.148;8.582;2023-08-31T01:03:35;5.68;;;3.03;;
24557;SDS011;12726;49.148;8.582;2023-08-31T01:06:27;4.63;;;2.60;;
24557;SDS011;12726;49.148;8.582;2023-08-31T01:09:27;5.55;;;3.20;;
24557;SDS011;12726;49.148;8.582;2023-08-31T01:12:21;5.47;;;3.05;;
24557;SDS011;12726;49.148;8.582;2023-08-31T01:15:14;5.00;;;2.95;;
24557;SDS011;12726;49.148;8.582;2023-08-31T01:18:00;4.53;;;2.88;;
24557;SDS011;12726;49.148;8.582;2023-08-31T01:20:49;3.72;;;3.00;;
24557;SDS011;12726;49.148;8.582;2023-08-31T01:23:52;4.00;;;2.80;;
24557;SDS011;12726;49.148;8.582;2023-08-31T01:26:38;3.22;;;2.75;;
24557;SDS011;12726;49.148;8.582;2023-08-31T01:29:26;5.35;;;3.20;;
24557;SDS011;12726;49.148;8.582;2023-08-31T01:32:18;5.43;;;3.28;;
24557;SDS011;12726;49.148;8.582;2023-08-31T01:35:03;5.35;;;3.10;;
24557;SDS011;12726;49.148;8.582;2023-08-31T01:37:51;3.55;;;3.25;;
24557;SDS011;12726;49.148;8.582;2023-08-31T01:40:44;6.45;;;3.10;;
24557;SDS011;12726;49.148;8.582;2023-08-31T01:43:34;4.88;;;3.03;;
24557;SDS011;12726;49.148;8.582;2023-08-31T01:46:20;4.45;;;3.20;;
24557;SDS011;12726;49.148;8.582;2023-08-31T01:49:06;5.50;;;3.25;;
24557;SDS011;12726;49.148;8.582;2023-08-31T01:51:51;6.05;;;3.33;;
24557;SDS011;12726;49.148;8.582;2023-08-31T01:54:36;8.52;;;3.17;;
24557;SDS011;12726;49.148;8.582;2023-08-31T01:57:23;5.47;;;2.70;;
24557;SDS011;12726;49.148;8.582;2023-08-31T02:00:09;5.95;;;3.30;;
24557;SDS011;12726;49.148;8.582;2023-08-31T02:02:59;4.25;;;3.13;;
24557;SDS011;12726;49.148;8.582;2023-08-31T02:05:44;5.82;;;3.53;;
24557;SDS011;12726;49.148;8.582;2023-08-31T02:08:30;5.25;;;3.78;;
24557;SDS011;12726;49.148;8.582;2023-08-31T02:11:15;4.43;;;3.05;;
24557;SDS011;12726;49.148;8.582;2023-08-31T02:14:02;4.90;;;3.50;;
24557;SDS011;12726;49.148;8.582;2023-08-31T02:16:48;3.53;;;3.03;;
24557;SDS011;12726;49.148;8.582;2023-08-31T02:19:33;6.20;;;3.47;;
24557;SDS011;12726;49.148;8.582;2023-08-31T02:22:20;4.88;;;3.22;;
24557;SDS011;12726;49.148;8.582;2023-08-31T02:25:06;5.38;;;3.53;;
24557;SDS011;12726;49.148;8.582;2023-08-31T02:27:51;5.90;;;3.72;;
24557;SDS011;12726;49.148;8.582;2023-08-31T02:30:38;5.80;;;3.42;;
24557;SDS011;12726;49.148;8.582;2023-08-31T02:33:23;7.18;;;3.42;;
24557;SDS011;12726;49.148;8.582;2023-08-31T02:36:09;6.38;;;3.22;;
24557;SDS011;12726;49.148;8.582;2023-08-31T02:38:57;6.13;;;3.55;;
24557;SDS011;12726;49.148;8.582;2023-08-31T02:41:44;6.72;;;3.30;;
24557;SDS011;12726;49.148;8.582;2023-08-31T02:44:29;6.25;;;3.53;;
24557;SDS011;12726;49.148;8.582;2023-08-31T02:47:16;8.90;;;3.90;;
24557;SDS011;12726;49.148;8.582;2023-08-31T02:50:01;4.82;;;3.55;;
24557;SDS011;12726;49.148;8.582;2023-08-31T02:52:47;5.45;;;3.00;;
24557;SDS011;12726;49.148;8.582;2023-08-31T02:55:32;8.13;;;3.20;;
24557;SDS011;12726;49.148;8.582;2023-08-31T02:58:17;4.68;;;3.10;;
24557;SDS011;12726;49.148;8.582;2023-08-31T03:01:06;6.35;;;2.88;;
24557;SDS011;12726;49.148;8.582;2023-08-31T03:03:56;4.47;;;3.00;;
24557;SDS011;12726;49.148;8.582;2023-08-31T03:06:41;3.85;;;2.63;;
24557;SDS011;12726;49.148;8.582;2023-08-31T03:09:27;7.60;;;2.42;;
24557;SDS011;12726;49.148;8.582;2023-08-31T03:12:12;8.15;;;3.08;;
24557;SDS011;12726;49.148;8.582;2023-08-31T03:14:58;5.43;;;3.25;;
24557;SDS011;12726;49.148;8.582;2023-08-31T03:17:43;5.35;;;3.28;;
24557;SDS011;12726;49.148;8.582;2023-08-31T03:20:30;3.88;;;3.08;;
24557;SDS011;12726;49.148;8.582;2023-08-31T03:23:15;5.70;;;2.85;;
24557;SDS011;12726;49.148;8.582;2023-08-31T03:26:06;7.50;;;3.17;;
24557;SDS011;12726;49.148;8.582;2023-08-31T03:28:51;9.68;;;3.10;;
24557;SDS011;12726;49.148;8.582;2023-08-31T03:31:37;5.47;;;3.40;;
24557;SDS011;12726;49.148;8.582;2023-08-31T03:34:22;5.75;;;3.65;;
24557;SDS011;12726;49.148;8.582;2023-08-31T03:37:09;7.05;;;3.28;;
24557;SDS011;12726;49.148;8.582;2023-08-31T03:39:54;9.52;;;4.18;;
24557;SDS011;12726;49.148;8.582;2023-08-31T03:42:39;4.57;;;3.42;;
24557;SDS011;12726;49.148;8.582;2023-08-31T03:45:24;6.00;;;3.72;;
24557;SDS011;12726;49.148;8.582;2023-08-31T03:48:10;6.32;;;3.42;;
24557;SDS011;12726;49.148;8.582;2023-08-31T03:50:55;3.88;;;3.15;;
24557;SDS011;12726;49.148;8.582;2023-08-31T03:53:42;5.22;;;3.05;;
24557;SDS011;12726;49.148;8.582;2023-08-31T03:56:27;7.65;;;3.28;;
24557;SDS011;12726;49.148;8.582;2023-08-31T03:59:13;4.95;;;3.13;;
24557;SDS011;12726;49.148;8.582;2023-08-31T04:01:58;4.70;;;3.10;;
24557;SDS011;12726;49.148;8.582;2023-08-31T04:04:44;6.18;;;3.30;;
24557;SDS011;12726;49.148;8.582;2023-08-31T04:07:29;5.05;;;3.33;;
24557;SDS011;12726;49.148;8.582;2023-08-31T04:10:16;6.40;;;3.60;;
24557;SDS011;12726;49.148;8.582;2023-08-31T04:13:02;5.18;;;3.30;;
24557;SDS011;12726;49.148;8.582;2023-08-31T04:15:48;6.85;;;3.92;;
24557;SDS011;12726;49.148;8.582;2023-08-31T04:18:33;4.00;;;2.95;;
24557;SDS011;12726;49.148;8.582;2023-08-31T04:21:18;5.97;;;3.25;;
24557;SDS011;12726;49.148;8.582;2023-08-31T04:24:04;8.32;;;3.15;;
24557;SDS011;12726;49.148;8.582;2023-08-31T04:26:51;5.40;;;3.15;;
24557;SDS011;12726;49.148;8.582;2023-08-31T04:29:36;6.90;;;3.15;;
24557;SDS011;12726;49.148;8.582;2023-08-31T04:32:22;4.90;;;3.10;;
24557;SDS011;12726;49.148;8.582;2023-08-31T04:35:08;4.25;;;3.05;;
24557;SDS011;12726;49.148;8.582;2023-08-31T04:37:53;5.43;;;3.13;;
24557;SDS011;12726;49.148;8.582;2023-08-31T04:40:38;8.55;;;3.38;;
24557;SDS011;12726;49.148;8.582;2023-08-31T04:43:25;5.90;;;3.40;;
24557;SDS011;12726;49.148;8.582;2023-08-31T04:46:11;4.78;;;3.45;;
24557;SDS011;12726;49.148;8.582;2023-08-31T04:48:57;5.25;;;3.42;;
24557;SDS011;12726;49.148;8.582;2023-08-31T04:51:43;5.13;;;3.63;;
24557;SDS011;12726;49.148;8.582;2023-08-31T04:54:28;7.95;;;3.60;;
24557;SDS011;12726;49.148;8.582;2023-08-31T04:57:14;5.30;;;3.90;;
24557;SDS011;12726;49.148;8.582;2023-08-31T05:00:01;5.90;;;3.63;;
24557;SDS011;12726;49.148;8.582;2023-08-31T05:02:48;6.20;;;3.67;;
24557;SDS011;12726;49.148;8.582;2023-08-31T05:05:33;5.85;;;3.80;;
24557;SDS011;12726;49.148;8.582;2023-08-31T05:08:19;5.22;;;3.53;;
24557;SDS011;12726;49.148;8.582;2023-08-31T05:11:04;8.18;;;3.90;;
24557;SDS011;12726;49.148;8.582;2023-08-31T05:13:50;4.75;;;3.25;;
24557;SDS011;12726;49.148;8.582;2023-08-31T05:16:36;6.32;;;3.10;;
24557;SDS011;12726;49.148;8.582;2023-08-31T05:19:22;6.00;;;3.30;;
24557;SDS011;12726;49.148;8.582;2023-08-31T05:22:10;4.22;;;2.85;;
24557;SDS011;12726;49.148;8.582;2023-08-31T05:24:57;11.73;;;3.30;;
24557;SDS011;12726;49.148;8.582;2023-08-31T05:27:44;5.95;;;3.20;;
24557;SDS011;12726;49.148;8.582;2023-08-31T05:30:29;4.30;;;3.20;;
24557;SDS011;12726;49.148;8.582;2023-08-31T05:33:16;4.93;;;2.70;;
24557;SDS011;12726;49.148;8.582;2023-08-31T05:36:01;6.80;;;2.80;;
24557;SDS011;12726;49.148;8.582;2023-08-31T05:38:47;5.85;;;3.08;;
24557;SDS011;12726;49.148;8.582;2023-08-31T05:41:35;6.75;;;2.83;;
24557;SDS011;12726;49.148;8.582;2023-08-31T05:44:21;6.78;;;3.30;;
24557;SDS011;12726;49.148;8.582;2023-08-31T05:47:09;3.30;;;2.50;;
24557;SDS011;12726;49.148;8.582;2023-08-31T05:49:56;5.32;;;2.70;;
24557;SDS011;12726;49.148;8.582;2023-08-31T05:52:43;4.40;;;2.78;;
24557;SDS011;12726;49.148;8.582;2023-08-31T05:55:29;5.10;;;2.90;;
24557;SDS011;12726;49.148;8.582;2023-08-31T05:58:14;4.82;;;2.85;;
24557;SDS011;12726;49.148;8.582;2023-08-31T06:01:00;5.75;;;2.40;;
24557;SDS011;12726;49.148;8.582;2023-08-31T06:03:45;6.78;;;2.38;;
24557;SDS011;12726;49.148;8.582;2023-08-31T06:09:21;4.03;;;2.55;;
24557;SDS011;12726;49.148;8.582;2023-08-31T06:12:06;7.57;;;2.70;;
24557;SDS011;12726;49.148;8.582;2023-08-31T06:14:52;5.60;;;2.53;;
24557;SDS011;12726;49.148;8.582;2023-08-31T06:17:37;6.38;;;2.83;;
24557;SDS011;12726;49.148;8.582;2023-08-31T06:20:23;6.35;;;2.47;;
24557;SDS011;12726;49.148;8.582;2023-08-31T06:23:10;8.18;;;2.42;;
24557;SDS011;12726;49.148;8.582;2023-08-31T06:25:55;3.70;;;2.90;;
24557;SDS011;12726;49.148;8.582;2023-08-31T06:28:41;5.30;;;2.60;;
24557;SDS011;12726;49.148;8.582;2023-08-31T06:31:26;7.55;;;2.40;;
24557;SDS011;12726;49.148;8.582;2023-08-31T06:34:11;3.75;;;2.20;;
24557;SDS011;12726;49.148;8.582;2023-08-31T06:36:59;4.18;;;1.83;;
24557;SDS011;12726;49.148;8.582;2023-08-31T06:39:46;2.70;;;1.58;;
24557;SDS011;12726;49.148;8.582;2023-08-31T06:42:32;4.63;;;1.92;;
24557;SDS011;12726;49.148;8.582;2023-08-31T06:45:17;3.70;;;1.88;;
24557;SDS011;12726;49.148;8.582;2023-08-31T06:48:03;3.97;;;1.80;;
24557;SDS011;12726;49.148;8.582;2023-08-31T06:50:49;5.50;;;2.22;;
24557;SDS011;12726;49.148;8.582;2023-08-31T06:53:34;5.05;;;1.90;;
24557;SDS011;12726;49.148;8.582;2023-08-31T06:56:25;4.05;;;2.00;;
24557;SDS011;12726;49.148;8.582;2023-08-31T06:59:11;4.88;;;2.20;;
24557;SDS011;12726;49.148;8.582;2023-08-31T07:01:56;6.78;;;2.20;;
24557;SDS011;12726;49.148;8.582;2023-08-31T07:04:41;5.60;;;1.95;;
24557;SDS011;12726;49.148;8.582;2023-08-31T07:07:27;5.57;;;1.70;;
24557;SDS011;12726;49.148;8.582;2023-08-31T07:10:15;3.38;;;1.60;;
24557;SDS011;12726;49.148;8.582;2023-08-31T07:13:02;6.45;;;1.60;;
24557;SDS011;12726;49.148;8.582;2023-08-31T07:15:47;5.90;;;2.00;;
24557;SDS011;12726;49.148;8.582;2023-08-31T07:18:34;6.63;;;1.60;;
24557;SDS011;12726;49.148;8.582;2023-08-31T07:21:21;3.40;;;1.52;;
24557;SDS011;12726;49.148;8.582;2023-08-31T07:24:06;2.70;;;1.33;;
24557;SDS011;12726;49.148;8.582;2023-08-31T07:26:52;3.90;;;1.50;;
24557;SDS011;12726;49.148;8.582;2023-08-31T07:29:39;4.05;;;1.70;;
24557;SDS011;12726;49.148;8.582;2023-08-31T07:32:24;3.90;;;1.55;;
24557;SDS011;12726;49.148;8.582;2023-08-31T07:35:09;5.25;;;1.75;;
24557;SDS011;12726;49.148;8.582;2023-08-31T07:37:55;4.10;;;1.52;;
24557;SDS011;12726;49.148;8.582;2023-08-31T07:40:40;5.35;;;1.33;;
24557;SDS011;12726;49.148;8.582;2023-08-31T07:43:27;5.82;;;1.58;;
24557;SDS011;12726;49.148;8.582;2023-08-31T07:46:15;6.60;;;2.13;;
24557;SDS011;12726;49.148;8.582;2023-08-31T07:49:00;6.90;;;1.77;;
24557;SDS011;12726;49.148;8.582;2023-08-31T07:51:47;4.28;;;1.70;;
24557;SDS011;12726;49.148;8.582;2023-08-31T07:54:32;6.28;;;1.83;;
24557;SDS011;12726;49.148;8.582;2023-08-31T07:57:17;7.05;;;1.60;;
24557;SDS011;12726;49.148;8.582;2023-08-31T08:00:03;4.47;;;1.42;;
24557;SDS011;12726;49.148;8.582;2023-08-31T08:02:51;6.90;;;1.80;;
24557;SDS011;12726;49.148;8.582;2023-08-31T08:05:36;4.15;;;1.45;;
24557;SDS011;12726;49.148;8.582;2023-08-31T08:08:22;3.08;;;1.48;;
24557;SDS011;12726;49.148;8.582;2023-08-31T08:11:08;3.17;;;1.58;;
24557;SDS011;12726;49.148;8.582;2023-08-31T08:13:53;5.25;;;1.50;;
24557;SDS011;12726;49.148;8.582;2023-08-31T08:16:39;4.28;;;1.67;;
24557;SDS011;12726;49.148;8.582;2023-08-31T08:19:25;4.15;;;1.73;;
24557;SDS011;12726;49.148;8.582;2023-08-31T08:22:11;3.75;;;1.70;;
24557;SDS011;12726;49.148;8.582;2023-08-31T08:24:56;6.75;;;1.58;;
24557;SDS011;12726;49.148;8.582;2023-08-31T08:27:42;2.50;;;1.30;;
24557;SDS011;12726;49.148;8.582;2023-08-31T08:30:29;5.03;;;1.80;;
24557;SDS011;12726;49.148;8.582;2023-08-31T08:33:15;9.18;;;1.85;;
24557;SDS011;12726;49.148;8.582;2023-08-31T08:36:02;4.32;;;1.35;;
24557;SDS011;12726;49.148;8.582;2023-08-31T08:38:47;4.18;;;1.50;;
24557;SDS011;12726;49.148;8.582;2023-08-31T08:41:33;5.18;;;1.48;;
24557;SDS011;12726;49.148;8.582;2023-08-31T08:44:20;3.53;;;1.50;;
24557;SDS011;12726;49.148;8.582;2023-08-31T08:47:09;3.67;;;1.75;;
24557;SDS011;12726;49.148;8.582;2023-08-31T08:49:56;3.40;;;1.30;;
24557;SDS011;12726;49.148;8.582;2023-08-31T08:52:44;4.78;;;1.20;;
24557;SDS011;12726;49.148;8.582;2023-08-31T08:55:30;4.40;;;1.45;;
24557;SDS011;12726;49.148;8.582;2023-08-31T08:58:15;4.35;;;1.75;;
24557;SDS011;12726;49.148;8.582;2023-08-31T09:01:02;3.75;;;1.58;;
24557;SDS011;12726;49.148;8.582;2023-08-31T09:03:51;4.43;;;1.52;;
24557;SDS011;12726;49.148;8.582;2023-08-31T09:06:37;8.23;;;1.80;;
24557;SDS011;12726;49.148;8.582;2023-08-31T09:09:24;2.13;;;1.35;;
24557;SDS011;12726;49.148;8.582;2023-08-31T09:12:10;5.13;;;1.63;;
24557;SDS011;12726;49.148;8.582;2023-08-31T09:14:59;2.88;;;1.30;;
24557;SDS011;12726;49.148;8.582;2023-08-31T09:17:46;4.05;;;1.50;;
24557;SDS011;12726;49.148;8.582;2023-08-31T09:20:31;4.05;;;1.60;;
24557;SDS011;12726;49.148;8.582;2023-08-31T09:23:16;4.03;;;1.55;;
24557;SDS011;12726;49.148;8.582;2023-08-31T09:26:03;5.75;;;1.50;;
24557;SDS011;12726;49.148;8.582;2023-08-31T09:28:49;2.17;;;1.20;;
24557;SDS011;12726;49.148;8.582;2023-08-31T09:31:34;3.00;;;1.30;;
24557;SDS011;12726;49.148;8.582;2023-08-31T09:34:19;5.63;;;1.50;;
24557;SDS011;12726;49.148;8.582;2023-08-31T09:37:05;2.60;;;1.02;;
24557;SDS011;12726;49.148;8.582;2023-08-31T09:39:52;3.03;;;1.23;;
24557;SDS011;12726;49.148;8.582;2023-08-31T09:42:38;4.55;;;2.03;;
24557;SDS011;12726;49.148;8.582;2023-08-31T09:45:25;2.88;;;1.30;;
24557;SDS011;12726;49.148;8.582;2023-08-31T09:48:13;3.83;;;1.65;;
24557;SDS011;12726;49.148;8.582;2023-08-31T09:51:00;2.55;;;1.20;;
24557;SDS011;12726;49.148;8.582;2023-08-31T09:53:49;4.00;;;1.13;;
24557;SDS011;12726;49.148;8.582;2023-08-31T09:56:37;4.13;;;1.63;;
24557;SDS011;12726;49.148;8.582;2023-08-31T09:59:27;2.55;;;1.17;;
24557;SDS011;12726;49.148;8.582;2023-08-31T10:02:12;4.05;;;1.65;;
24557;SDS011;12726;49.148;8.582;2023-08-31T10:05:00;5.40;;;1.60;;
24557;SDS011;12726;49.148;8.582;2023-08-31T10:07:45;3.15;;;1.20;;
24557;SDS011;12726;49.148;8.582;2023-08-31T10:10:31;4.32;;;1.60;;
24557;SDS011;12726;49.148;8.582;2023-08-31T10:13:18;3.33;;;1.50;;
24557;SDS011;12726;49.148;8.582;2023-08-31T10:16:07;4.43;;;1.42;;
24557;SDS011;12726;49.148;8.582;2023-08-31T10:18:54;3.50;;;1.35;;
24557;SDS011;12726;49.148;8.582;2023-08-31T10:21:40;4.40;;;1.48;;
24557;SDS011;12726;49.148;8.582;2023-08-31T10:27:44;4.68;;;1.50;;
24557;SDS011;12726;49.148;8.582;2023-08-31T10:30:30;5.22;;;1.90;;
24557;SDS011;12726;49.148;8.582;2023-08-31T10:33:21;4.50;;;1.55;;
24557;SDS011;12726;49.148;8.582;2023-08-31T10:36:11;7.93;;;1.80;;
24557;SDS011;12726;49.148;8.582;2023-08-31T10:38:59;5.00;;;1.50;;
24557;SDS011;12726;49.148;8.582;2023-08-31T10:41:51;4.10;;;1.58;;
24557;SDS011;12726;49.148;8.582;2023-08-31T10:44:37;5.22;;;1.73;;
24557;SDS011;12726;49.148;8.582;2023-08-31T10:47:36;4.50;;;1.67;;
24557;SDS011;12726;49.148;8.582;2023-08-31T10:50:24;4.63;;;1.42;;
24557;SDS011;12726;49.148;8.582;2023-08-31T10:53:10;3.20;;;1.27;;
24557;SDS011;12726;49.148;8.582;2023-08-31T10:55:56;5.53;;;1.73;;
24557;SDS011;12726;49.148;8.582;2023-08-31T10:58:41;5.85;;;1.63;;
24557;SDS011;12726;49.148;8.582;2023-08-31T11:04:52;5.68;;;1.90;;
24557;SDS011;12726;49.148;8.582;2023-08-31T11:07:39;4.53;;;1.90;;
24557;SDS011;12726;49.148;8.582;2023-08-31T11:10:26;5.60;;;2.10;;
24557;SDS011;12726;49.148;8.582;2023-08-31T11:13:15;6.30;;;2.03;;
24557;SDS011;12726;49.148;8.582;2023-08-31T11:16:01;5.95;;;2.03;;
24557;SDS011;12726;49.148;8.582;2023-08-31T11:18:47;4.20;;;1.33;;
24557;SDS011;12726;49.148;8.582;2023-08-31T11:21:33;5.93;;;1.60;;
24557;SDS011;12726;49.148;8.582;2023-08-31T11:24:22;4.30;;;1.65;;
24557;SDS011;12726;49.148;8.582;2023-08-31T11:27:07;4.75;;;1.73;;
24557;SDS011;12726;49.148;8.582;2023-08-31T11:29:54;5.28;;;1.63;;
24557;SDS011;12726;49.148;8.582;2023-08-31T11:32:43;3.97;;;1.60;;
24557;SDS011;12726;49.148;8.582;2023-08-31T11:35:31;5.43;;;2.03;;
24557;SDS011;12726;49.148;8.582;2023-08-31T11:38:18;4.07;;;1.58;;
24557;SDS011;12726;49.148;8.582;2023-08-31T11:41:05;4.53;;;1.25;;
24557;SDS011;12726;49.148;8.582;2023-08-31T11:43:52;7.65;;;1.55;;
24557;SDS011;12726;49.148;8.582;2023-08-31T11:46:38;4.68;;;1.60;;
24557;SDS011;12726;49.148;8.582;2023-08-31T11:49:24;3.97;;;1.63;;
24557;SDS011;12726;49.148;8.582;2023-08-31T11:52:11;5.25;;;1.50;;
24557;SDS011;12726;49.148;8.582;2023-08-31T11:54:58;5.20;;;1.75;;
24557;SDS011;12726;49.148;8.582;2023-08-31T11:57:48;5.32;;;1.50;;
24557;SDS011;12726;49.148;8.582;2023-08-31T12:00:34;4.53;;;1.40;;
24557;SDS011;12726;49.148;8.582;2023-08-31T12:03:19;5.03;;;1.50;;
24557;SDS011;12726;49.148;8.582;2023-08-31T12:06:05;7.72;;;1.70;;
24557;SDS011;12726;49.148;8.582;2023-08-31T12:08:52;6.78;;;1.95;;
24557;SDS011;12726;49.148;8.582;2023-08-31T12:11:38;3.90;;;1.55;;
24557;SDS011;12726;49.148;8.582;2023-08-31T12:14:26;5.32;;;1.60;;
24557;SDS011;12726;49.148;8.582;2023-08-31T12:17:11;4.18;;;1.60;;
24557;SDS011;12726;49.148;8.582;2023-08-31T12:20:02;5.82;;;1.58;;
24557;SDS011;12726;49.148;8.582;2023-08-31T12:22:49;2.95;;;1.42;;
24557;SDS011;12726;49.148;8.582;2023-08-31T12:25:35;4.07;;;1.48;;
24557;SDS011;12726;49.148;8.582;2023-08-31T12:28:20;7.70;;;1.70;;
24557;SDS011;12726;49.148;8.582;2023-08-31T12:31:08;5.35;;;1.40;;
24557;SDS011;12726;49.148;8.582;2023-08-31T12:33:53;7.35;;;1.67;;
24557;SDS011;12726;49.148;8.582;2023-08-31T12:36:39;3.72;;;1.65;;
24557;SDS011;12726;49.148;8.582;2023-08-31T12:39:25;5.80;;;1.75;;
24557;SDS011;12726;49.148;8.582;2023-08-31T12:42:10;4.25;;;1.63;;
24557;SDS011;12726;49.148;8.582;2023-08-31T12:44:55;3.42;;;1.42;;
24557;SDS011;12726;49.148;8.582;2023-08-31T12:47:42;5.38;;;1.50;;
24557;SDS011;12726;49.148;8.582;2023-08-31T12:50:27;3.83;;;1.85;;
24557;SDS011;12726;49.148;8.582;2023-08-31T12:53:13;5.45;;;1.83;;
24557;SDS011;12726;49.148;8.582;2023-08-31T12:55:59;4.30;;;1.65;;
24557;SDS011;12726;49.148;8.582;2023-08-31T12:58:44;7.18;;;1.83;;
24557;SDS011;12726;49.148;8.582;2023-08-31T13:01:31;6.82;;;1.80;;
24557;SDS011;12726;49.148;8.582;2023-08-31T13:04:18;4.63;;;2.33;;
24557;SDS011;12726;49.148;8.582;2023-08-31T13:07:03;5.78;;;1.67;;
24557;SDS011;12726;49.148;8.582;2023-08-31T13:09:49;6.88;;;1.60;;
24557;SDS011;12726;49.148;8.582;2023-08-31T13:12:35;5.03;;;1.58;;
24557;SDS011;12726;49.148;8.582;2023-08-31T13:15:21;3.13;;;1.42;;
24557;SDS011;12726;49.148;8.582;2023-08-31T13:18:06;4.80;;;1.92;;
24557;SDS011;12726;49.148;8.582;2023-08-31T13:20:53;8.02;;;1.50;;
24557;SDS011;12726;49.148;8.582;2023-08-31T13:23:39;3.90;;;1.75;;
24557;SDS011;12726;49.148;8.582;2023-08-31T13:26:26;4.47;;;1.83;;
24557;SDS011;12726;49.148;8.582;2023-08-31T13:29:11;4.60;;;1.55;;
24557;SDS011;12726;49.148;8.582;2023-08-31T13:31:57;4.13;;;1.70;;
24557;SDS011;12726;49.148;8.582;2023-08-31T13:34:42;4.50;;;1.77;;
24557;SDS011;12726;49.148;8.582;2023-08-31T13:37:29;5.93;;;1.60;;
24557;SDS011;12726;49.148;8.582;2023-08-31T13:40:14;4.20;;;1.75;;
24557;SDS011;12726;49.148;8.582;2023-08-31T13:43:00;3.42;;;1.40;;
24557;SDS011;12726;49.148;8.582;2023-08-31T13:45:46;7.97;;;1.70;;
24557;SDS011;12726;49.148;8.582;2023-08-31T13:48:32;5.00;;;1.63;;
24557;SDS011;12726;49.148;8.582;2023-08-31T13:51:17;6.38;;;1.60;;
24557;SDS011;12726;49.148;8.582;2023-08-31T13:54:04;4.15;;;1.70;;
24557;SDS011;12726;49.148;8.582;2023-08-31T13:56:52;6.90;;;1.80;;
24557;SDS011;12726;49.148;8.582;2023-08-31T13:59:38;5.07;;;1.90;;
24557;SDS011;12726;49.148;8.582;2023-08-31T14:02:23;6.68;;;1.63;;
24557;SDS011;12726;49.148;8.582;2023-08-31T14:05:09;4.10;;;1.70;;
24557;SDS011;12726;49.148;8.582;2023-08-31T14:07:55;4.53;;;1.60;;
24557;SDS011;12726;49.148;8.582;2023-08-31T14:10:43;8.10;;;1.77;;
24557;SDS011;12726;49.148;8.582;2023-08-31T14:13:28;4.97;;;1.33;;
24557;SDS011;12726;49.148;8.582;2023-08-31T14:16:15;4.68;;;1.85;;
24557;SDS011;12726;49.148;8.582;2023-08-31T14:19:01;5.38;;;1.75;;
24557;SDS011;12726;49.148;8.582;2023-08-31T14:21:48;8.07;;;2.08;;
24557;SDS011;12726;49.148;8.582;2023-08-31T14:24:33;4.95;;;1.63;;
24557;SDS011;12726;49.148;8.582;2023-08-31T14:27:20;6.15;;;1.70;;
24557;SDS011;12726;49.148;8.582;2023-08-31T14:30:07;4.97;;;1.50;;
24557;SDS011;12726;49.148;8.582;2023-08-31T14:32:53;4.78;;;1.90;;
24557;SDS011;12726;49.148;8.582;2023-08-31T14:35:38;6.82;;;1.48;;
24557;SDS011;12726;49.148;8.582;2023-08-31T14:38:24;5.10;;;1.92;;
24557;SDS011;12726;49.148;8.582;2023-08-31T14:41:11;5.53;;;1.98;;
24557;SDS011;12726;49.148;8.582;2023-08-31T14:43:58;7.05;;;1.90;;
24557;SDS011;12726;49.148;8.582;2023-08-31T14:46:43;3.78;;;1.55;;
24557;SDS011;12726;49.148;8.582;2023-08-31T14:49:28;4.22;;;1.70;;
24557;SDS011;12726;49.148;8.582;2023-08-31T14:52:14;6.10;;;2.10;;
24557;SDS011;12726;49.148;8.582;2023-08-31T14:54:59;7.20;;;1.80;;
24557;SDS011;12726;49.148;8.582;2023-08-31T14:57:45;6.93;;;2.15;;
24557;SDS011;12726;49.148;8.582;2023-08-31T15:00:31;5.75;;;1.95;;
24557;SDS011;12726;49.148;8.582;2023-08-31T15:03:18;4.68;;;1.42;;
24557;SDS011;12726;49.148;8.582;2023-08-31T15:06:04;7.15;;;1.73;;
24557;SDS011;12726;49.148;8.582;2023-08-31T15:08:49;7.00;;;1.45;;
24557;SDS011;12726;49.148;8.582;2023-08-31T15:11:35;5.95;;;1.67;;
24557;SDS011;12726;49.148;8.582;2023-08-31T15:14:22;4.72;;;1.80;;
24557;SDS011;12726;49.148;8.582;2023-08-31T15:17:09;5.45;;;1.85;;
24557;SDS011;12726;49.148;8.582;2023-08-31T15:19:54;5.72;;;1.92;;
24557;SDS011;12726;49.148;8.582;2023-08-31T15:22:39;4.88;;;1.60;;
24557;SDS011;12726;49.148;8.582;2023-08-31T15:25:25;6.80;;;1.70;;
24557;SDS011;12726;49.148;8.582;2023-08-31T15:28:10;4.05;;;1.42;;
24557;SDS011;12726;49.148;8.582;2023-08-31T15:30:55;4.60;;;1.70;;
24557;SDS011;12726;49.148;8.582;2023-08-31T15:33:45;3.88;;;1.88;;
24557;SDS011;12726;49.148;8.582;2023-08-31T15:36:31;4.53;;;1.75;;
24557;SDS011;12726;49.148;8.582;2023-08-31T15:39:16;5.47;;;1.77;;
24557;SDS011;12726;49.148;8.582;2023-08-31T15:42:01;6.70;;;2.05;;
24557;SDS011;12726;49.148;8.582;2023-08-31T15:44:47;7.20;;;2.20;;
24557;SDS011;12726;49.148;8.582;2023-08-31T15:47:32;4.60;;;1.40;;
24557;SDS011;12726;49.148;8.582;2023-08-31T15:50:19;5.03;;;1.63;;
24557;SDS011;12726;49.148;8.582;2023-08-31T15:53:04;4.93;;;2.20;;
24557;SDS011;12726;49.148;8.582;2023-08-31T15:55:50;6.22;;;1.80;;
24557;SDS011;12726;49.148;8.582;2023-08-31T15:58:35;5.45;;;1.90;;
24557;SDS011;12726;49.148;8.582;2023-08-31T16:01:24;7.72;;;1.92;;
24557;SDS011;12726;49.148;8.582;2023-08-31T16:04:10;7.18;;;1.77;;
24557;SDS011;12726;49.148;8.582;2023-08-31T16:06:57;3.42;;;1.58;;
24557;SDS011;12726;49.148;8.582;2023-08-31T16:09:42;5.35;;;1.60;;
24557;SDS011;12726;49.148;8.582;2023-08-31T16:12:28;7.07;;;2.10;;
24557;SDS011;12726;49.148;8.582;2023-08-31T16:15:13;4.82;;;1.65;;
24557;SDS011;12726;49.148;8.582;2023-08-31T16:17:58;5.78;;;1.80;;
24557;SDS011;12726;49.148;8.582;2023-08-31T16:20:44;5.68;;;1.42;;
24557;SDS011;12726;49.148;8.582;2023-08-31T16:23:30;3.67;;;1.42;;
24557;SDS011;12726;49.148;8.582;2023-08-31T16:26:16;5.15;;;1.85;;
24557;SDS011;12726;49.148;8.582;2023-08-31T16:29:01;8.35;;;1.88;;
24557;SDS011;12726;49.148;8.582;2023-08-31T16:31:47;6.60;;;1.83;;
24557;SDS011;12726;49.148;8.582;2023-08-31T16:34:33;3.53;;;1.48;;
24557;SDS011;12726;49.148;8.582;2023-08-31T16:37:18;6.43;;;1.98;;
24557;SDS011;12726;49.148;8.582;2023-08-31T16:40:09;3.88;;;1.80;;
24557;SDS011;12726;49.148;8.582;2023-08-31T16:42:55;9.23;;;1.95;;
24557;SDS011;12726;49.148;8.582;2023-08-31T16:45:40;7.20;;;1.83;;
24557;SDS011;12726;49.148;8.582;2023-08-31T16:48:27;7.50;;;1.80;;
24557;SDS011;12726;49.148;8.582;2023-08-31T16:51:12;7.10;;;1.70;;
24557;SDS011;12726;49.148;8.582;2023-08-31T16:53:58;4.38;;;1.60;;